Time;durP1;ratioP1;P1;durP2;ratioP2;P2;SDS_P1;SDS_P2;PMS_P1;PMS_P2;Temp;Humidity;BMP_temperature;BMP_pressure;BME280_temperature;BME280_humidity;BME280_pressure;Samples;Min_cycle;Max_cycle;Signal;HPM_P1;HPM_P2
2022/04/02 00:01:25;;;;;;;1.57;1.40;;;3.70;1.00;;;;;;5071057;28;20198;-70
2022/04/02 00:03:52;;;;;;;1.20;1.10;;;3.70;1.00;;;;;;5071015;28;20799;-69
2022/04/02 00:06:19;;;;;;;1.27;1.10;;;3.70;1.00;;;;;;5070618;28;20584;-69
2022/04/02 00:08:48;;;;;;;1.83;1.73;;;3.70;1.00;;;;;;5070949;28;20271;-69
2022/04/02 00:11:15;;;;;;;2.90;2.10;;;3.70;1.00;;;;;;5070961;28;20252;-70
2022/04/02 00:13:41;;;;;;;1.80;1.70;;;3.70;1.00;;;;;;5071303;28;20202;-70
2022/04/02 00:16:08;;;;;;;2.27;2.07;;;3.70;1.00;;;;;;5071236;28;20608;-70
2022/04/02 00:18:35;;;;;;;1.43;1.30;;;3.60;1.00;;;;;;5070967;28;20206;-69
2022/04/02 00:21:02;;;;;;;1.57;1.43;;;3.70;1.00;;;;;;5071030;28;20210;-69
2022/04/02 00:23:40;;;;;;;2.83;1.53;;;3.60;1.00;;;;;;5070505;28;20252;-70
2022/04/02 00:26:09;;;;;;;1.73;1.60;;;3.70;1.00;;;;;;5071323;28;20210;-71
2022/04/02 00:28:37;;;;;;;1.63;1.53;;;3.50;1.00;;;;;;5071332;28;20206;-69
2022/04/02 00:31:07;;;;;;;1.97;1.87;;;3.50;1.00;;;;;;5071191;28;20206;-69
2022/04/02 00:33:34;;;;;;;2.17;1.87;;;3.50;1.00;;;;;;5070616;28;20306;-68
2022/04/02 00:36:01;;;;;;;1.83;1.73;;;3.60;1.00;;;;;;5070747;28;20758;-70
2022/04/02 00:38:28;;;;;;;1.83;1.70;;;3.50;1.00;;;;;;5070403;28;20201;-70
2022/04/02 00:40:55;;;;;;;3.10;1.37;;;3.50;1.00;;;;;;5070733;28;20202;-70
2022/04/02 00:43:25;;;;;;;1.97;1.60;;;3.40;1.00;;;;;;5070337;28;20262;-69
2022/04/02 00:45:53;;;;;;;2.40;2.13;;;3.50;1.00;;;;;;5070883;28;20206;-69
2022/04/02 00:48:21;;;;;;;2.50;2.07;;;3.50;1.00;;;;;;5070126;28;20210;-69
2022/04/02 00:50:52;;;;;;;3.40;1.90;;;3.50;1.00;;;;;;5071099;28;20263;-69
2022/04/02 00:53:20;;;;;;;2.60;2.00;;;3.40;1.00;;;;;;5074521;28;20340;-69
2022/04/02 00:55:48;;;;;;;2.27;1.73;;;3.30;1.00;;;;;;5074788;28;20642;-68
2022/04/02 00:58:16;;;;;;;2.43;1.80;;;3.20;1.00;;;;;;5074323;28;20201;-69
2022/04/02 01:00:46;;;;;;;1.47;1.37;;;3.00;1.00;;;;;;5074683;28;20616;-69
2022/04/02 01:03:16;;;;;;;2.53;2.17;;;3.00;1.00;;;;;;5074289;28;20202;-72
2022/04/02 01:05:44;;;;;;;1.90;1.40;;;3.00;1.00;;;;;;5074382;28;20590;-70
2022/04/02 01:08:11;;;;;;;2.20;1.87;;;3.10;1.00;;;;;;5074177;28;20224;-71
2022/04/02 01:10:40;;;;;;;2.30;1.90;;;3.10;1.00;;;;;;5074704;28;20202;-69
2022/04/02 01:13:08;;;;;;;1.93;1.40;;;3.30;1.00;;;;;;5074887;28;20233;-70
2022/04/02 01:15:35;;;;;;;3.87;1.60;;;3.30;1.00;;;;;;5074134;28;20241;-69
2022/04/02 01:18:04;;;;;;;2.50;1.77;;;3.40;1.00;;;;;;5074780;28;20202;-71
2022/04/02 01:20:32;;;;;;;2.73;1.67;;;3.40;1.00;;;;;;5074155;28;20209;-69
2022/04/02 01:23:01;;;;;;;1.70;1.20;;;3.40;1.00;;;;;;5074262;28;20550;-70
2022/04/02 01:25:31;;;;;;;1.80;1.23;;;3.50;1.00;;;;;;5073844;28;20263;-70
2022/04/02 01:28:00;;;;;;;2.47;1.70;;;3.60;1.00;;;;;;5074197;28;20306;-69
2022/04/02 01:30:28;;;;;;;2.17;1.27;;;3.50;1.00;;;;;;5073648;28;20206;-70
2022/04/02 01:32:55;;;;;;;3.13;2.27;;;3.50;1.00;;;;;;5073920;28;20259;-70
2022/04/02 01:35:22;;;;;;;2.40;1.10;;;3.50;1.00;;;;;;5073689;28;20299;-70
2022/04/02 01:37:49;;;;;;;2.60;2.00;;;3.50;1.00;;;;;;5074085;28;20202;-68
2022/04/02 01:40:19;;;;;;;1.80;1.30;;;3.40;1.00;;;;;;5073505;28;20623;-69
2022/04/02 01:42:46;;;;;;;1.50;1.33;;;3.50;1.00;;;;;;5073708;28;20276;-69
2022/04/02 01:45:14;;;;;;;1.97;1.47;;;3.40;1.00;;;;;;5073477;28;20263;-69
2022/04/02 01:47:41;;;;;;;3.60;1.70;;;3.50;1.00;;;;;;5074000;28;20260;-69
2022/04/02 01:50:10;;;;;;;2.10;1.90;;;3.50;1.00;;;;;;5073849;28;20256;-69
2022/04/02 01:52:38;;;;;;;2.00;1.47;;;3.50;1.00;;;;;;5074064;28;20240;-70
2022/04/02 01:55:06;;;;;;;2.03;1.87;;;3.50;1.00;;;;;;5073550;28;20284;-68
2022/04/02 01:57:35;;;;;;;2.90;1.47;;;3.50;1.00;;;;;;5073466;28;20263;-68
2022/04/02 02:00:02;;;;;;;4.23;1.73;;;3.50;1.00;;;;;;5073599;28;20202;-68
2022/04/02 02:02:29;;;;;;;2.63;2.00;;;3.40;1.00;;;;;;5073293;28;20342;-68
2022/04/02 02:04:56;;;;;;;2.73;1.90;;;3.50;1.00;;;;;;5073631;28;20258;-70
2022/04/02 02:07:23;;;;;;;1.77;1.67;;;3.40;1.00;;;;;;5073117;28;20336;-69
2022/04/02 02:09:50;;;;;;;1.90;1.70;;;3.40;1.00;;;;;;5073260;28;20305;-69
2022/04/02 02:12:17;;;;;;;2.90;2.40;;;3.40;1.00;;;;;;5072934;28;20206;-68
2022/04/02 02:14:45;;;;;;;3.23;2.70;;;3.40;1.00;;;;;;5073329;28;20217;-69
2022/04/02 02:17:12;;;;;;;3.67;2.40;;;3.50;1.00;;;;;;5072912;28;20206;-69
2022/04/02 02:19:39;;;;;;;3.60;3.30;;;3.40;1.00;;;;;;5073316;28;20259;-70
2022/04/02 02:22:06;;;;;;;5.20;1.87;;;3.40;1.00;;;;;;5073406;28;20252;-68
2022/04/02 02:24:33;;;;;;;2.40;1.93;;;3.40;1.00;;;;;;5073393;28;20202;-68
2022/04/02 02:27:01;;;;;;;2.47;1.73;;;3.50;1.00;;;;;;5073332;28;20260;-69
2022/04/02 02:29:28;;;;;;;2.37;1.83;;;3.40;1.00;;;;;;5072599;28;20232;-70
2022/04/02 02:31:57;;;;;;;2.07;1.70;;;3.50;1.00;;;;;;5072987;28;20198;-70
2022/04/02 02:37:09;;;;;;;2.80;2.50;;;3.60;1.00;;;;;;5073195;28;20237;-70
2022/04/02 02:39:36;;;;;;;3.23;1.73;;;3.50;1.00;;;;;;5073149;28;20202;-69
2022/04/02 02:42:04;;;;;;;3.70;2.20;;;3.50;1.00;;;;;;5072991;28;20738;-69
2022/04/02 02:44:31;;;;;;;2.50;2.03;;;3.50;1.00;;;;;;5072335;28;20207;-70
2022/04/02 02:46:59;;;;;;;2.50;2.30;;;3.60;1.00;;;;;;5072828;28;20637;-70
2022/04/02 02:49:26;;;;;;;1.90;1.80;;;3.60;1.00;;;;;;5072218;28;20251;-70
2022/04/02 02:51:53;;;;;;;4.10;1.93;;;3.50;1.00;;;;;;5072851;28;20202;-68
2022/04/02 02:54:20;;;;;;;2.00;1.80;;;3.50;1.00;;;;;;5072203;28;20206;-68
2022/04/02 02:56:47;;;;;;;2.13;1.90;;;3.40;1.00;;;;;;5072227;28;20287;-68
2022/04/02 02:59:14;;;;;;;2.87;1.87;;;3.40;1.00;;;;;;5072182;28;20260;-69
2022/04/02 03:01:41;;;;;;;2.40;2.20;;;3.30;1.00;;;;;;5072353;28;20283;-70
2022/04/02 03:04:09;;;;;;;3.37;3.07;;;3.40;1.00;;;;;;5072727;28;20244;-69
2022/04/02 03:06:37;;;;;;;4.47;2.53;;;3.40;1.00;;;;;;5072515;28;20206;-69
2022/04/02 03:09:04;;;;;;;2.50;2.10;;;3.40;1.00;;;;;;5072599;28;20296;-69
2022/04/02 03:11:32;;;;;;;2.60;2.40;;;3.30;1.00;;;;;;5071808;28;20256;-69
2022/04/02 03:13:59;;;;;;;5.20;1.83;;;3.40;1.00;;;;;;5071662;28;20206;-68
2022/04/02 03:16:26;;;;;;;4.10;2.07;;;3.30;1.00;;;;;;5071643;28;20264;-69
2022/04/02 03:18:53;;;;;;;3.43;2.30;;;3.30;1.00;;;;;;5072221;28;20333;-68
2022/04/02 03:21:21;;;;;;;3.00;2.13;;;3.30;1.00;;;;;;5071819;28;20206;-69
2022/04/02 03:23:48;;;;;;;3.80;2.50;;;3.40;1.00;;;;;;5071945;28;20573;-69
2022/04/02 03:26:15;;;;;;;2.13;1.93;;;3.30;1.00;;;;;;5071433;28;20259;-68
2022/04/02 03:28:43;;;;;;;3.20;2.07;;;3.30;1.00;;;;;;5071841;28;20244;-69
2022/04/02 03:31:10;;;;;;;3.47;2.17;;;3.30;1.00;;;;;;5071451;28;20198;-69
2022/04/02 03:33:37;;;;;;;1.80;1.67;;;3.20;1.00;;;;;;5072291;28;20264;-69
2022/04/02 03:36:05;;;;;;;3.50;2.10;;;3.20;1.00;;;;;;5072153;28;20238;-69
2022/04/02 03:38:33;;;;;;;2.23;1.97;;;3.20;1.00;;;;;;5071385;28;20252;-69
2022/04/02 03:41:00;;;;;;;4.23;2.10;;;3.20;1.00;;;;;;5071508;28;20210;-69
2022/04/02 03:43:27;;;;;;;2.33;2.10;;;3.20;1.00;;;;;;5071356;28;20255;-70
2022/04/02 03:47:07;;;;;;;3.03;2.37;;;3.20;1.00;;;;;;5071838;28;20205;-67
2022/04/02 03:48:42;;;;;;;3.33;2.67;;;3.20;1.00;;;;;;5071382;28;20213;-66
2022/04/02 03:51:09;;;;;;;4.20;3.13;;;3.30;1.00;;;;;;5071576;28;20198;-67
2022/04/02 03:53:37;;;;;;;2.97;2.27;;;3.30;1.00;;;;;;5071576;28;20248;-68
2022/04/02 03:56:07;;;;;;;4.97;2.17;;;3.30;1.00;;;;;;5071362;28;20230;-67
2022/04/02 03:58:33;;;;;;;2.80;2.30;;;3.20;1.00;;;;;;5071472;28;20213;-70
2022/04/02 04:01:00;;;;;;;1.77;1.67;;;3.20;1.00;;;;;;5071273;28;20206;-70
2022/04/02 04:03:27;;;;;;;2.30;2.07;;;3.20;1.00;;;;;;5070825;28;20248;-70
2022/04/02 04:05:54;;;;;;;2.73;1.83;;;3.10;1.00;;;;;;5071184;28;20205;-69
2022/04/02 04:08:21;;;;;;;2.80;1.93;;;3.10;1.00;;;;;;5070617;28;20268;-68
2022/04/02 04:10:50;;;;;;;4.43;2.90;;;3.10;1.00;;;;;;5071349;28;20280;-69
2022/04/02 04:13:17;;;;;;;1.73;1.63;;;3.10;1.00;;;;;;5082077;28;20677;-68
2022/04/02 04:15:44;;;;;;;4.03;2.40;;;3.10;1.00;;;;;;5090504;28;20229;-69
2022/04/02 04:18:11;;;;;;;3.33;2.17;;;3.10;1.00;;;;;;5090375;28;20640;-70
2022/04/02 04:20:38;;;;;;;4.83;2.60;;;3.10;1.00;;;;;;5071233;28;20210;-68
2022/04/02 04:23:05;;;;;;;6.13;2.37;;;3.10;1.00;;;;;;5071247;28;20581;-70
2022/04/02 04:25:31;;;;;;;3.63;2.67;;;3.10;1.00;;;;;;5069960;28;20206;-71
2022/04/02 04:28:01;;;;;;;2.40;2.20;;;3.10;1.00;;;;;;5070927;28;20271;-70
2022/04/02 04:30:28;;;;;;;4.70;2.13;;;3.10;1.00;;;;;;5070312;28;20246;-70
2022/04/02 04:32:57;;;;;;;2.40;2.00;;;3.10;1.00;;;;;;5070909;28;20210;-67
2022/04/02 04:35:25;;;;;;;3.60;2.37;;;3.10;1.00;;;;;;5070424;28;20198;-67
2022/04/02 04:37:52;;;;;;;3.07;1.83;;;3.10;1.00;;;;;;5070980;28;20237;-69
2022/04/02 04:40:19;;;;;;;2.33;2.13;;;3.00;1.00;;;;;;5070423;28;20206;-70
2022/04/02 04:42:46;;;;;;;4.43;2.33;;;3.00;1.00;;;;;;5070661;28;20685;-70
2022/04/02 04:45:14;;;;;;;4.33;2.33;;;3.00;1.00;;;;;;5070480;28;20232;-69
2022/04/02 04:47:45;;;;;;;3.17;2.50;;;3.20;1.00;;;;;;5070058;28;20206;-70
2022/04/02 04:50:13;;;;;;;4.97;2.37;;;3.20;1.00;;;;;;5070409;28;20206;-70
2022/04/02 04:52:40;;;;;;;5.83;3.13;;;3.20;1.00;;;;;;5070482;28;20621;-69
2022/04/02 04:55:07;;;;;;;3.03;2.37;;;3.10;1.00;;;;;;5071121;28;20268;-68
2022/04/02 04:57:34;;;;;;;2.50;2.27;;;3.10;1.00;;;;;;5070096;28;20291;-68
2022/04/02 05:00:01;;;;;;;3.87;2.40;;;3.00;1.00;;;;;;5070736;28;20243;-69
2022/04/02 05:02:30;;;;;;;4.47;2.30;;;3.10;1.00;;;;;;5069654;28;20590;-68
2022/04/02 05:04:57;;;;;;;5.40;3.23;;;2.90;1.00;;;;;;5070621;28;20680;-68
2022/04/02 05:07:25;;;;;;;2.97;2.30;;;2.80;1.00;;;;;;5070020;28;20210;-68
2022/04/02 05:09:52;;;;;;;3.63;2.47;;;2.80;1.00;;;;;;5070539;28;20214;-69
2022/04/02 05:12:19;;;;;;;4.40;2.80;;;2.80;1.00;;;;;;5069132;28;20202;-68
2022/04/02 05:14:46;;;;;;;3.17;2.50;;;2.90;1.00;;;;;;5070496;28;20206;-68
2022/04/02 05:17:13;;;;;;;6.80;3.57;;;2.90;1.00;;;;;;5069929;28;20237;-68
2022/04/02 05:19:42;;;;;;;3.43;2.40;;;2.80;1.00;;;;;;5070509;28;20202;-68
2022/04/02 05:22:10;;;;;;;6.53;3.53;;;2.70;1.00;;;;;;5070259;28;20203;-67
2022/04/02 05:24:37;;;;;;;3.60;3.10;;;2.70;1.00;;;;;;5070651;28;20248;-67
2022/04/02 05:27:05;;;;;;;3.37;3.07;;;2.50;1.00;;;;;;5070568;28;20210;-68
2022/04/02 05:29:32;;;;;;;6.77;4.30;;;2.40;1.00;;;;;;5069919;28;20220;-67
2022/04/02 05:31:59;;;;;;;5.17;3.17;;;2.30;1.00;;;;;;5070195;28;20271;-67
2022/04/02 05:34:26;;;;;;;3.90;3.37;;;2.20;1.00;;;;;;5069654;28;20685;-67
2022/04/02 05:36:54;;;;;;;4.00;3.00;;;2.30;1.00;;;;;;5070174;28;20238;-68
2022/04/02 05:39:21;;;;;;;5.63;4.30;;;2.20;1.00;;;;;;5073621;28;20276;-68
2022/04/02 05:41:48;;;;;;;6.20;3.73;;;2.20;1.00;;;;;;5073815;28;20271;-69
2022/04/02 05:44:15;;;;;;;3.73;3.30;;;2.30;1.00;;;;;;5073389;28;20208;-68
2022/04/02 05:46:42;;;;;;;4.93;3.00;;;2.40;1.00;;;;;;5074022;28;20206;-68
2022/04/02 05:49:11;;;;;;;3.93;3.53;;;2.40;1.00;;;;;;5073940;28;20206;-68
2022/04/02 05:51:39;;;;;;;6.47;3.70;;;2.40;1.00;;;;;;5073538;28;20288;-68
2022/04/02 05:54:07;;;;;;;6.47;4.40;;;2.40;1.00;;;;;;5074028;28;20201;-68
2022/04/02 05:56:34;;;;;;;6.10;3.87;;;2.40;7.20;;;;;;5073443;28;20230;-68
2022/04/02 05:59:05;;;;;;;6.20;3.83;;;2.40;3.50;;;;;;5073868;28;20571;-68
2022/04/02 06:01:32;;;;;;;8.20;3.73;;;2.40;10.10;;;;;;5073197;28;20221;-69
2022/04/02 06:03:59;;;;;;;5.10;3.47;;;2.40;20.50;;;;;;5073562;28;20206;-69
2022/04/02 06:06:26;;;;;;;4.63;3.80;;;2.40;25.70;;;;;;5073069;28;20218;-68
2022/04/02 06:08:53;;;;;;;3.93;3.63;;;2.40;7.10;;;;;;5073302;28;20217;-69
2022/04/02 06:11:21;;;;;;;5.17;3.70;;;2.40;5.70;;;;;;5072847;28;20210;-70
2022/04/02 06:13:48;;;;;;;4.33;3.93;;;2.40;9.00;;;;;;5073313;28;20202;-69
2022/04/02 06:16:16;;;;;;;7.47;4.53;;;2.30;1.00;;;;;;5072865;28;20202;-70
2022/04/02 06:18:43;;;;;;;4.63;4.00;;;2.40;1.00;;;;;;5073190;28;20207;-69
2022/04/02 06:21:11;;;;;;;7.07;3.73;;;2.30;1.00;;;;;;5072690;28;20206;-69
2022/04/02 06:23:39;;;;;;;5.83;4.30;;;2.40;1.00;;;;;;5073177;28;20285;-71
2022/04/02 06:26:06;;;;;;;3.93;3.50;;;2.30;1.00;;;;;;5073564;28;20288;-70
2022/04/02 06:28:34;;;;;;;7.17;4.40;;;2.30;1.00;;;;;;5072843;28;20289;-70
2022/04/02 06:31:01;;;;;;;4.73;4.23;;;2.30;5.60;;;;;;5072973;28;20202;-70
2022/04/02 06:33:28;;;;;;;9.30;4.90;;;2.40;27.20;;;;;;5072747;28;20256;-70
2022/04/02 06:35:55;;;;;;;7.27;4.07;;;2.30;8.40;;;;;;5072782;28;20305;-70
2022/04/02 06:38:22;;;;;;;3.87;3.50;;;2.20;33.20;;;;;;5072291;28;20295;-70
2022/04/02 06:40:49;;;;;;;5.20;3.70;;;2.20;42.10;;;;;;5073070;28;20206;-70
2022/04/02 06:43:16;;;;;;;5.73;4.60;;;2.20;61.30;;;;;;5072508;28;20206;-71
2022/04/02 06:45:45;;;;;;;8.20;4.93;;;2.20;83.70;;;;;;5072883;28;20202;-72
2022/04/02 06:48:13;;;;;;;6.70;4.43;;;2.10;81.60;;;;;;5072248;28;20205;-71
2022/04/02 06:50:40;;;;;;;4.70;3.90;;;2.20;94.20;;;;;;5071848;28;20209;-72
2022/04/02 06:53:07;;;;;;;4.40;4.00;;;2.20;92.20;;;;;;5072862;28;20202;-70
2022/04/02 06:55:35;;;;;;;6.80;4.60;;;2.10;89.40;;;;;;5072633;28;20207;-71
2022/04/02 06:58:03;;;;;;;7.30;5.23;;;2.00;96.10;;;;;;5072706;28;20234;-72
2022/04/02 07:00:30;;;;;;;6.13;4.07;;;2.10;99.10;;;;;;5072113;28;20607;-70
2022/04/02 07:02:58;;;;;;;5.63;4.73;;;2.20;98.20;;;;;;5072289;28;20227;-70
2022/04/02 07:05:25;;;;;;;5.60;3.47;;;2.20;99.90;;;;;;5071642;28;20250;-71
2022/04/02 07:07:52;;;;;;;5.87;4.50;;;2.20;93.20;;;;;;5072116;28;20209;-72
2022/04/02 07:10:21;;;;;;;6.83;4.33;;;2.20;98.20;;;;;;5071809;28;20260;-73
2022/04/02 07:12:47;;;;;;;6.23;4.10;;;2.20;99.90;;;;;;5072311;28;20301;-70
2022/04/02 07:15:15;;;;;;;6.27;3.43;;;2.20;94.30;;;;;;5071727;28;20199;-70
2022/04/02 07:17:42;;;;;;;4.30;3.60;;;2.30;91.70;;;;;;5071780;28;20230;-69
2022/04/02 07:20:13;;;;;;;6.40;4.50;;;2.30;90.50;;;;;;5071855;28;20680;-68
2022/04/02 07:22:42;;;;;;;5.07;4.57;;;2.20;41.90;;;;;;5071987;28;20240;-68
2022/04/02 07:25:12;;;;;;;5.33;3.90;;;2.20;49.50;;;;;;5071907;28;20206;-70
2022/04/02 07:27:40;;;;;;;5.00;4.17;;;2.20;59.70;;;;;;5071911;28;20202;-71
2022/04/02 07:30:08;;;;;;;6.50;4.60;;;2.30;81.10;;;;;;5072178;28;20206;-70
2022/04/02 07:32:35;;;;;;;5.63;3.97;;;2.20;52.70;;;;;;5071878;28;20198;-69
2022/04/02 07:35:02;;;;;;;8.67;4.73;;;2.30;23.80;;;;;;5071676;28;20608;-70
2022/04/02 07:37:50;;;;;;;7.00;3.77;;;2.30;22.80;;;;;;5077622;28;20771;-69
2022/04/02 07:40:20;;;;;;;7.03;4.97;;;2.40;42.50;;;;;;5088065;28;20628;-70
2022/04/02 07:42:59;;;;;;;4.50;3.83;;;2.50;51.80;;;;;;5087677;28;20197;-70
2022/04/02 07:45:30;;;;;;;7.77;4.50;;;2.50;5.50;;;;;;5084337;28;20202;-69
2022/04/02 07:47:59;;;;;;;6.20;4.50;;;2.50;11.40;;;;;;5086822;28;20209;-71
2022/04/02 07:50:27;;;;;;;5.50;4.10;;;2.60;3.60;;;;;;5090859;28;20197;-67
2022/04/02 07:52:57;;;;;;;7.77;4.37;;;2.60;1.70;;;;;;5090550;28;20198;-69
2022/04/02 07:55:24;;;;;;;11.33;4.67;;;2.70;1.00;;;;;;5091129;28;20687;-69
2022/04/02 07:57:53;;;;;;;4.93;4.07;;;2.70;1.00;;;;;;5091444;28;20306;-69
2022/04/02 08:00:22;;;;;;;8.70;4.63;;;2.70;1.00;;;;;;5077189;28;20224;-68
2022/04/02 08:02:50;;;;;;;3.97;3.60;;;2.80;1.00;;;;;;5070666;28;20251;-68
2022/04/02 08:05:19;;;;;;;5.67;4.53;;;2.90;1.00;;;;;;5073268;28;20205;-72
2022/04/02 08:07:49;;;;;;;7.70;5.07;;;2.90;1.00;;;;;;5078485;28;20589;-69
2022/04/02 08:10:19;;;;;;;3.73;3.30;;;2.70;1.00;;;;;;5070715;28;20205;-68
2022/04/02 08:12:47;;;;;;;4.53;3.87;;;2.70;1.00;;;;;;5071049;28;20692;-70
2022/04/02 08:15:17;;;;;;;6.07;4.70;;;2.80;1.00;;;;;;5070658;28;20561;-68
2022/04/02 08:17:45;;;;;;;7.17;3.53;;;2.90;1.00;;;;;;5075484;28;20704;-68
2022/04/02 08:20:15;;;;;;;4.13;3.70;;;3.00;1.00;;;;;;5081646;28;20224;-68
2022/04/02 08:22:42;;;;;;;6.20;3.87;;;3.10;1.00;;;;;;5088867;28;20245;-69
2022/04/02 08:25:09;;;;;;;6.43;3.90;;;3.10;1.00;;;;;;5089035;28;20255;-70
2022/04/02 08:27:49;;;;;;;9.77;7.03;;;3.10;1.00;;;;;;5079352;28;20213;-69
2022/04/02 08:30:19;;;;;;;3.57;3.27;;;3.10;1.00;;;;;;5079904;28;20201;-68
2022/04/02 08:33:04;;;;;;;5.40;4.10;;;3.20;1.00;;;;;;5081916;28;20230;-66
2022/04/02 08:35:39;;;;;;;4.30;3.70;;;3.20;1.00;;;;;;5081154;28;20210;-69
2022/04/02 08:38:20;;;;;;;4.57;3.60;;;3.30;1.00;;;;;;5071006;28;20287;-68
2022/04/02 08:41:02;;;;;;;4.13;3.70;;;3.40;1.00;;;;;;5082509;28;20216;-69
2022/04/02 08:44:07;;;;;;;4.63;4.23;;;3.60;1.00;;;;;;5073311;28;20634;-69
2022/04/02 08:46:38;;;;;;;3.73;3.33;;;3.60;1.00;;;;;;5081815;28;20250;-69
2022/04/02 08:49:22;;;;;;;6.13;4.40;;;3.70;1.00;;;;;;5091126;28;20205;-70
2022/04/02 08:51:59;;;;;;;4.73;4.27;;;3.80;1.00;;;;;;5088426;28;20248;-69
2022/04/02 08:54:28;;;;;;;5.07;3.57;;;3.80;1.00;;;;;;5090077;28;20733;-70
2022/04/02 08:56:58;;;;;;;4.40;3.87;;;3.80;1.00;;;;;;5090420;28;20251;-71
2022/04/02 08:59:38;;;;;;;5.57;3.50;;;3.90;1.00;;;;;;5090061;28;20665;-70
2022/04/02 09:02:43;;;;;;;6.60;4.73;;;3.90;1.00;;;;;;5081333;28;20596;-69
2022/04/02 09:05:12;;;;;;;7.10;3.90;;;3.90;1.00;;;;;;5070131;28;20206;-69
2022/04/02 09:08:27;;;;;;;6.03;3.90;;;3.90;1.00;;;;;;5078583;28;20204;-70
2022/04/02 09:11:24;;;;;;;7.10;3.57;;;3.90;1.00;;;;;;5058680;28;20201;-69
2022/04/02 09:14:42;;;;;;;5.30;3.83;;;4.10;1.00;;;;;;5082092;28;20259;-68
2022/04/02 09:17:35;;;;;;;6.40;4.47;;;4.30;1.00;;;;;;5069733;28;20266;-69
2022/04/02 09:20:22;;;;;;;6.83;4.97;;;4.70;1.00;;;;;;5088366;28;20293;-70
2022/04/02 09:23:06;;;;;;;6.27;4.33;;;5.10;1.00;;;;;;5094069;28;20202;-72
2022/04/02 09:25:56;;;;;;;6.37;3.97;;;5.50;1.00;;;;;;5091903;28;20209;-69
2022/04/02 09:28:43;;;;;;;7.23;5.53;;;5.80;1.00;;;;;;5079055;28;20274;-69
2022/04/02 09:32:02;;;;;;;4.57;3.87;;;6.30;1.00;;;;;;5087533;28;20278;-69
2022/04/02 09:35:01;;;;;;;4.57;4.17;;;6.00;1.00;;;;;;4997332;28;20272;-71
2022/04/02 09:38:06;;;;;;;9.03;4.47;;;5.80;1.00;;;;;;5005179;28;20306;-67
2022/04/02 09:40:39;;;;;;;7.23;4.80;;;5.70;1.00;;;;;;5078735;28;20209;-72
2022/04/02 09:43:17;;;;;;;5.70;4.37;;;5.80;1.00;;;;;;5078181;28;20205;-68
2022/04/02 09:45:53;;;;;;;4.17;3.77;;;6.00;1.00;;;;;;5072805;28;20206;-67
2022/04/02 09:48:25;;;;;;;5.80;3.73;;;5.90;1.00;;;;;;5087999;28;20255;-69
2022/04/02 09:50:56;;;;;;;5.53;4.70;;;6.10;1.00;;;;;;5087417;28;20234;-67
2022/04/02 09:53:26;;;;;;;5.93;3.20;;;6.00;1.00;;;;;;5092505;28;20644;-69
2022/04/02 09:56:10;;;;;;;4.43;4.03;;;6.10;1.00;;;;;;5091415;28;20816;-67
2022/04/02 09:59:04;;;;;;;6.43;4.77;;;6.00;1.00;;;;;;5099462;28;20278;-67
2022/04/02 10:01:35;;;;;;;5.27;3.80;;;6.10;1.00;;;;;;5092346;28;20205;-72
2022/04/02 10:04:10;;;;;;;4.93;3.80;;;5.90;1.00;;;;;;5091120;28;20197;-69
2022/04/02 10:06:42;;;;;;;4.03;3.57;;;5.70;1.00;;;;;;5084483;28;20206;-68
2022/04/02 10:09:11;;;;;;;5.23;3.50;;;6.50;1.00;;;;;;5084926;28;20576;-67
2022/04/02 10:11:43;;;;;;;4.63;3.90;;;7.00;1.00;;;;;;5102001;28;20622;-70
2022/04/02 10:14:11;;;;;;;4.33;3.40;;;7.00;1.00;;;;;;5087041;28;20205;-68
2022/04/02 10:16:41;;;;;;;6.80;3.93;;;6.10;1.00;;;;;;5085825;28;20241;-69
2022/04/02 10:19:10;;;;;;;6.37;3.07;;;8.50;1.00;;;;;;5092320;28;20232;-68
2022/04/02 10:21:39;;;;;;;7.53;3.90;;;7.20;1.00;;;;;;5080397;28;20263;-68
2022/04/02 10:24:22;;;;;;;4.70;3.47;;;6.40;1.00;;;;;;5080732;28;20283;-68
2022/04/02 10:26:52;;;;;;;4.50;4.07;;;6.10;1.00;;;;;;5079837;28;20198;-68
2022/04/02 10:29:39;;;;;;;5.33;3.10;;;6.50;1.00;;;;;;5092178;28;20627;-67
2022/04/02 10:32:24;;;;;;;4.70;3.53;;;8.00;1.00;;;;;;5079288;28;20722;-67
2022/04/02 10:34:57;;;;;;;3.80;2.87;;;9.20;1.00;;;;;;5078893;28;20198;-68
2022/04/02 10:37:31;;;;;;;4.77;2.80;;;7.40;1.00;;;;;;5084528;28;20222;-68
2022/04/02 10:40:05;;;;;;;3.37;2.70;;;6.70;1.00;;;;;;5088575;28;20972;-70
2022/04/02 10:42:35;;;;;;;3.33;3.03;;;6.50;1.00;;;;;;5089060;28;20239;-68
2022/04/02 10:45:05;;;;;;;4.67;3.10;;;6.10;1.00;;;;;;5086858;28;20197;-68
2022/04/02 10:47:35;;;;;;;4.37;2.37;;;6.30;1.00;;;;;;5090554;28;20209;-68
2022/04/02 10:50:05;;;;;;;3.53;2.73;;;6.60;1.00;;;;;;5075275;28;20658;-69
2022/04/02 10:52:32;;;;;;;3.57;3.27;;;6.50;1.00;;;;;;5081584;28;20665;-68
2022/04/02 10:55:00;;;;;;;5.27;3.20;;;6.10;1.00;;;;;;5089690;28;20209;-67
2022/04/02 10:57:29;;;;;;;5.70;2.93;;;6.40;1.00;;;;;;5094238;28;20258;-68
2022/04/02 11:00:01;;;;;;;7.60;4.67;;;6.60;1.00;;;;;;5084554;28;20201;-68
2022/04/02 11:02:41;;;;;;;5.03;3.20;;;7.10;1.00;;;;;;5080518;28;20209;-68
2022/04/02 11:05:09;;;;;;;5.23;2.50;;;8.00;1.00;;;;;;5089756;28;20311;-68
2022/04/02 11:07:40;;;;;;;3.07;2.73;;;8.20;1.00;;;;;;5080930;28;20579;-68
2022/04/02 11:10:10;;;;;;;5.33;1.70;;;8.40;1.00;;;;;;5080409;28;20221;-68
2022/04/02 11:12:41;;;;;;;2.20;2.00;;;8.70;1.00;;;;;;5092194;28;20664;-68
2022/04/02 11:15:10;;;;;;;4.60;2.20;;;7.70;1.00;;;;;;5088538;28;20225;-67
2022/04/02 11:17:41;;;;;;;3.00;2.40;;;6.90;1.00;;;;;;5084438;28;20197;-73
2022/04/02 11:20:11;;;;;;;1.63;1.33;;;6.90;1.00;;;;;;5104174;28;20231;-67
2022/04/02 11:22:58;;;;;;;5.53;2.70;;;6.80;1.00;;;;;;5086140;28;20621;-68
2022/04/02 11:25:29;;;;;;;2.30;2.03;;;6.70;1.00;;;;;;5083639;28;20226;-69
2022/04/02 11:27:59;;;;;;;3.20;2.37;;;6.80;1.00;;;;;;5081699;28;20197;-67
2022/04/02 11:30:29;;;;;;;3.77;2.10;;;6.70;1.00;;;;;;5091626;28;20600;-68
2022/04/02 11:33:05;;;;;;;2.87;1.93;;;6.30;1.00;;;;;;5091224;28;20623;-66
2022/04/02 11:35:36;;;;;;;4.20;1.87;;;6.30;1.00;;;;;;5086430;28;20205;-70
2022/04/02 11:38:29;;;;;;;2.93;2.00;;;7.00;1.00;;;;;;5079535;28;20646;-70
2022/04/02 11:41:04;;;;;;;13.97;3.30;;;7.60;1.00;;;;;;5090687;28;20243;-69
2022/04/02 11:43:33;;;;;;;3.13;2.43;;;6.80;1.00;;;;;;5090896;28;20201;-69
2022/04/02 11:46:01;;;;;;;2.93;1.70;;;6.30;1.00;;;;;;5078488;28;20202;-70
2022/04/02 11:48:32;;;;;;;2.40;2.03;;;6.20;1.00;;;;;;5078446;28;20686;-69
2022/04/02 11:51:12;;;;;;;4.17;1.90;;;6.20;1.00;;;;;;5086346;28;20304;-69
2022/04/02 11:53:40;;;;;;;2.50;2.30;;;6.20;1.00;;;;;;5076607;28;20359;-70
2022/04/02 11:59:06;;;;;;;3.60;2.63;;;6.40;1.00;;;;;;5102800;27;20796;-66
2022/04/02 12:01:41;;;;;;;2.17;1.90;;;6.60;1.00;;;;;;5086420;28;20208;-68
2022/04/02 12:04:12;;;;;;;4.27;2.00;;;6.20;1.00;;;;;;5086743;28;20288;-68
2022/04/02 12:06:39;;;;;;;3.43;2.03;;;6.10;1.00;;;;;;5086733;28;20284;-67
2022/04/02 12:09:14;;;;;;;3.73;3.00;;;6.20;1.00;;;;;;5085842;28;20209;-69
2022/04/02 12:11:44;;;;;;;1.53;1.43;;;6.30;1.00;;;;;;5087773;28;20209;-69
2022/04/02 12:14:27;;;;;;;4.73;1.73;;;6.40;1.00;;;;;;5087022;28;20750;-69
2022/04/02 12:17:01;;;;;;;5.90;2.27;;;6.30;1.00;;;;;;5083554;28;20205;-72
2022/04/02 12:19:40;;;;;;;3.70;1.90;;;6.20;1.00;;;;;;5085164;28;20202;-69
2022/04/02 12:22:31;;;;;;;2.20;2.00;;;6.10;1.00;;;;;;5086070;28;20197;-75
2022/04/02 12:24:59;;;;;;;4.63;2.00;;;6.40;1.00;;;;;;5065095;28;20317;-74
2022/04/02 12:27:28;;;;;;;3.57;2.33;;;6.70;1.00;;;;;;5075635;28;20209;-70
2022/04/02 12:29:58;;;;;;;3.47;1.80;;;6.80;1.00;;;;;;5083185;28;20206;-68
2022/04/02 12:32:32;;;;;;;5.20;1.83;;;6.80;1.00;;;;;;5086403;28;20206;-67
2022/04/02 12:35:01;;;;;;;6.97;2.00;;;6.70;1.00;;;;;;5084782;28;20295;-68
2022/04/02 12:37:30;;;;;;;2.87;1.80;;;7.00;1.00;;;;;;5074427;28;20642;-67
2022/04/02 12:39:59;;;;;;;3.07;2.20;;;7.10;1.00;;;;;;5087451;28;20205;-68
2022/04/02 12:42:38;;;;;;;3.00;2.37;;;6.80;1.00;;;;;;5081349;28;20251;-68
2022/04/02 12:45:11;;;;;;;4.80;2.10;;;6.50;1.00;;;;;;5087399;28;20210;-69
2022/04/02 12:47:39;;;;;;;3.23;2.03;;;6.30;1.00;;;;;;5086928;28;20210;-69
2022/04/02 12:50:17;;;;;;;3.37;2.27;;;6.10;1.00;;;;;;5087543;28;20231;-67
2022/04/02 12:52:45;;;;;;;6.07;3.07;;;6.20;1.00;;;;;;5085601;28;20629;-74
2022/04/02 12:55:17;;;;;;;2.73;2.10;;;6.20;1.00;;;;;;5069928;28;20214;-68
2022/04/02 12:57:57;;;;;;;3.77;2.33;;;6.40;1.00;;;;;;5083873;28;20229;-70
2022/04/02 13:00:30;;;;;;;2.97;2.40;;;6.90;1.00;;;;;;5084914;28;20210;-68
2022/04/02 13:02:58;;;;;;;6.13;2.50;;;7.50;1.00;;;;;;5080453;28;20209;-69
2022/04/02 13:05:27;;;;;;;3.90;2.33;;;7.60;1.00;;;;;;5085147;28;20201;-70
2022/04/02 13:08:04;;;;;;;3.40;1.73;;;7.30;1.00;;;;;;5070974;28;20268;-68
2022/04/02 13:10:32;;;;;;;2.30;1.80;;;7.20;1.00;;;;;;5052357;28;20260;-68
2022/04/02 13:13:04;;;;;;;2.63;1.53;;;6.90;1.00;;;;;;5053568;28;20211;-68
2022/04/02 13:15:34;;;;;;;4.47;2.70;;;6.90;1.00;;;;;;5052489;28;20202;-71
2022/04/02 13:20:48;;;;;;;3.83;2.00;;;7.00;1.00;;;;;;5052935;28;20206;-71
2022/04/02 13:23:46;;;;;;;8.73;2.53;;;7.40;1.00;;;;;;5052768;28;20622;-68
2022/04/02 13:26:16;;;;;;;3.30;2.23;;;7.70;1.00;;;;;;5052714;28;20741;-70
2022/04/02 13:29:02;;;;;;;5.77;2.97;;;7.70;1.00;;;;;;5052847;28;20252;-68
2022/04/02 13:31:36;;;;;;;3.03;2.10;;;7.80;1.00;;;;;;5052791;28;20206;-69
2022/04/02 13:34:16;;;;;;;3.73;2.70;;;7.80;1.00;;;;;;5053346;28;20198;-68
2022/04/02 13:36:58;;;;;;;3.03;1.77;;;7.60;1.00;;;;;;5052750;28;20211;-72